WMT7ML LIME-LATI
Flight info
| Callsign | WMT7ML |
|---|---|
| Flight time | N/A |
| Altitude | 19000 |
| Route | N0337F190 LEGLO L615 NEVNI/N0425F350 DCT LABIN DCT MINTU DCT SPL DCT TIKSA DCT NERRA DCT BALHA DCT TIBRI DCT PETAK PETAK3M |
| Aircraft | A21N/M-SDE1E2E3FGIJ1J4RWXY/LB1 |
Departure
| Time | 2026-05-04 07:42 |
|---|---|
| Airport | Il Caravaggio International Airport (LIME) |
Arrival
| Time | N/A |
|---|---|
| Airport | Tirana International Airport Mother Teresa (LATI) |
| Time | Latitude | Longitude | Altitude | Speed | Heading |
|---|---|---|---|---|---|
| 2026-05-04 07:18 | 45.66617 | 9.70170 | 793 ft | 0 kts | 195° |
| 2026-05-04 07:33 | 45.66619 | 9.70171 | 793 ft | 2 kts | 195° |
| 2026-05-04 07:33 | 45.66644 | 9.70181 | 785 ft | 4 kts | 195° |
| 2026-05-04 07:33 | 45.66670 | 9.70190 | 793 ft | 4 kts | 195° |
| 2026-05-04 07:34 | 45.66692 | 9.70196 | 793 ft | 4 kts | 165° |
| 2026-05-04 07:34 | 45.66709 | 9.70176 | 793 ft | 4 kts | 111° |
| 2026-05-04 07:34 | 45.66714 | 9.70154 | 793 ft | 1 kts | 104° |
| 2026-05-04 07:34 | 45.66714 | 9.70150 | 793 ft | 0 kts | 104° |
| 2026-05-04 07:38 | 45.66606 | 9.70738 | 793 ft | 18 kts | 106° |
| 2026-05-04 07:38 | 45.66571 | 9.70917 | 793 ft | 20 kts | 105° |
| 2026-05-04 07:38 | 45.66533 | 9.71112 | 793 ft | 21 kts | 110° |
| 2026-05-04 07:38 | 45.66485 | 9.71305 | 793 ft | 18 kts | 104° |
| 2026-05-04 07:39 | 45.66452 | 9.71487 | 793 ft | 19 kts | 104° |
| 2026-05-04 07:39 | 45.66442 | 9.71647 | 793 ft | 16 kts | 78° |
| 2026-05-04 07:39 | 45.66475 | 9.71806 | 793 ft | 14 kts | 81° |
| 2026-05-04 07:39 | 45.66462 | 9.71918 | 793 ft | 12 kts | 106° |
| 2026-05-04 07:40 | 45.66436 | 9.72047 | 793 ft | 14 kts | 105° |
| 2026-05-04 07:40 | 45.66409 | 9.72195 | 793 ft | 16 kts | 105° |
| 2026-05-04 07:40 | 45.66385 | 9.72328 | 793 ft | 13 kts | 103° |
| 2026-05-04 07:40 | 45.66373 | 9.72446 | 793 ft | 9 kts | 85° |
| 2026-05-04 07:41 | 45.66384 | 9.72542 | 793 ft | 11 kts | 64° |
| 2026-05-04 07:41 | 45.66439 | 9.72526 | 793 ft | 12 kts | 298° |
| 2026-05-04 07:41 | 45.66459 | 9.72438 | 793 ft | 12 kts | 286° |
| 2026-05-04 07:41 | 45.66549 | 9.71965 | 793 ft | 91 kts | 285° |
| 2026-05-04 07:42 | 45.66774 | 9.70750 | 793 ft | 153 kts | 285° |
| 2026-05-04 07:42 | 45.67053 | 9.69191 | 1239 ft | 163 kts | 285° |
| 2026-05-04 07:42 | 45.67323 | 9.67626 | 2011 ft | 161 kts | 278° |
| 2026-05-04 07:42 | 45.67056 | 9.66113 | 2647 ft | 165 kts | 230° |
| 2026-05-04 07:43 | 45.66031 | 9.65270 | 3235 ft | 174 kts | 207° |
| 2026-05-04 07:43 | 45.65142 | 9.64139 | 3999 ft | 172 kts | 236° |
| 2026-05-04 07:43 | 45.64377 | 9.62759 | 4602 ft | 185 kts | 224° |
| 2026-05-04 07:43 | 45.63325 | 9.61457 | 4872 ft | 219 kts | 221° |
| 2026-05-04 07:44 | 45.62201 | 9.59805 | 5317 ft | 242 kts | 226° |
| 2026-05-04 07:44 | 45.61004 | 9.58039 | 6178 ft | 254 kts | 221° |
| 2026-05-04 07:44 | 45.59434 | 9.56774 | 6812 ft | 267 kts | 193° |
| 2026-05-04 07:44 | 45.57578 | 9.56745 | 7637 ft | 272 kts | 167° |
| 2026-05-04 07:45 | 45.55890 | 9.57968 | 8556 ft | 278 kts | 140° |
| 2026-05-04 07:45 | 45.54771 | 9.60229 | 9468 ft | 287 kts | 113° |
| 2026-05-04 07:45 | 45.54289 | 9.63027 | 10328 ft | 295 kts | 103° |
| 2026-05-04 07:45 | 45.53928 | 9.65993 | 10813 ft | 313 kts | 103° |
| 2026-05-04 07:46 | 45.53530 | 9.69087 | 11279 ft | 328 kts | 104° |
| 2026-05-04 07:46 | 45.53092 | 9.72318 | 11952 ft | 334 kts | 104° |
| 2026-05-04 07:46 | 45.52638 | 9.75577 | 12778 ft | 337 kts | 105° |
| 2026-05-04 07:46 | 45.52169 | 9.78877 | 13643 ft | 339 kts | 106° |
| 2026-05-04 07:47 | 45.51689 | 9.82188 | 14475 ft | 341 kts | 106° |
| 2026-05-04 07:47 | 45.51198 | 9.85525 | 15232 ft | 344 kts | 106° |
| 2026-05-04 07:47 | 45.50710 | 9.88843 | 15960 ft | 348 kts | 105° |
| 2026-05-04 07:49 | 45.47065 | 10.13474 | 20522 ft | 377 kts | 104° |
| 2026-05-04 07:49 | 45.46512 | 10.17168 | 21078 ft | 382 kts | 104° |
| 2026-05-04 07:49 | 45.45956 | 10.20843 | 21644 ft | 386 kts | 104° |
| 2026-05-04 07:50 | 45.45389 | 10.24612 | 22202 ft | 390 kts | 104° |
| 2026-05-04 07:50 | 45.44812 | 10.28427 | 22762 ft | 394 kts | 104° |
| 2026-05-04 07:50 | 45.44232 | 10.32272 | 23310 ft | 398 kts | 104° |
| 2026-05-04 07:50 | 45.43653 | 10.36106 | 23819 ft | 402 kts | 104° |
| 2026-05-04 07:51 | 45.43062 | 10.40022 | 24271 ft | 406 kts | 104° |
| 2026-05-04 07:51 | 45.42460 | 10.43977 | 24733 ft | 409 kts | 104° |
| 2026-05-04 07:51 | 45.41848 | 10.47955 | 25189 ft | 412 kts | 104° |
| 2026-05-04 07:51 | 45.41231 | 10.51952 | 25646 ft | 415 kts | 104° |
| 2026-05-04 07:52 | 45.40611 | 10.55993 | 26057 ft | 419 kts | 104° |
| 2026-05-04 07:52 | 45.39995 | 10.60017 | 26469 ft | 422 kts | 104° |
| 2026-05-04 07:52 | 45.39362 | 10.64115 | 26895 ft | 425 kts | 104° |
| 2026-05-04 07:52 | 45.38724 | 10.68239 | 27314 ft | 428 kts | 104° |
| 2026-05-04 07:53 | 45.38080 | 10.72389 | 27724 ft | 431 kts | 104° |
| 2026-05-04 07:54 | 45.33410 | 11.02177 | 30289 ft | 452 kts | 104° |
| 2026-05-04 07:55 | 45.32717 | 11.06548 | 30595 ft | 454 kts | 104° |
| 2026-05-04 07:55 | 45.32019 | 11.10936 | 30899 ft | 456 kts | 104° |
| 2026-05-04 07:55 | 45.31314 | 11.15344 | 31200 ft | 458 kts | 104° |
| 2026-05-04 07:55 | 45.30605 | 11.19773 | 31492 ft | 460 kts | 104° |
| 2026-05-04 07:56 | 45.29897 | 11.24204 | 31813 ft | 460 kts | 104° |
| 2026-05-04 07:56 | 45.29187 | 11.28640 | 32210 ft | 459 kts | 104° |
| 2026-05-04 07:56 | 45.28483 | 11.33008 | 32582 ft | 458 kts | 104° |
| 2026-05-04 07:56 | 45.27768 | 11.37436 | 32941 ft | 457 kts | 104° |
| 2026-05-04 07:57 | 45.27055 | 11.41837 | 33322 ft | 456 kts | 104° |
| 2026-05-04 07:57 | 45.26342 | 11.46235 | 33673 ft | 455 kts | 104° |
| 2026-05-04 07:57 | 45.25639 | 11.50562 | 34015 ft | 455 kts | 104° |
| 2026-05-04 07:57 | 45.24925 | 11.54944 | 34314 ft | 454 kts | 104° |
| 2026-05-04 07:58 | 45.24212 | 11.59309 | 34590 ft | 453 kts | 104° |
| 2026-05-04 07:58 | 45.23498 | 11.63661 | 34854 ft | 453 kts | 104° |
| 2026-05-04 07:58 | 45.22781 | 11.68015 | 35067 ft | 453 kts | 104° |
| 2026-05-04 07:58 | 45.22061 | 11.72370 | 35152 ft | 453 kts | 104° |
| 2026-05-04 07:59 | 45.20624 | 11.81066 | 35131 ft | 452 kts | 104° |
| 2026-05-04 07:59 | 45.19187 | 11.89713 | 35107 ft | 452 kts | 104° |
| 2026-05-04 08:00 | 45.17735 | 11.98392 | 35124 ft | 452 kts | 105° |
| 2026-05-04 08:02 | 45.11848 | 12.33172 | 35116 ft | 454 kts | 105° |
| 2026-05-04 08:02 | 45.10363 | 12.41839 | 35113 ft | 455 kts | 104° |
| 2026-05-04 08:03 | 45.08861 | 12.50566 | 35115 ft | 456 kts | 105° |
| 2026-05-04 08:03 | 45.07357 | 12.59246 | 35112 ft | 456 kts | 105° |
| 2026-05-04 08:04 | 45.05843 | 12.67956 | 35114 ft | 455 kts | 105° |
| 2026-05-04 08:04 | 45.04320 | 12.76671 | 35114 ft | 456 kts | 105° |
| 2026-05-04 08:05 | 45.02799 | 12.85329 | 35122 ft | 457 kts | 105° |
| 2026-05-04 08:05 | 45.01260 | 12.94047 | 35121 ft | 457 kts | 105° |
| 2026-05-04 08:06 | 44.99710 | 13.02771 | 35122 ft | 456 kts | 105° |
| 2026-05-04 08:06 | 44.97760 | 13.11273 | 35110 ft | 454 kts | 118° |
| 2026-05-04 08:08 | 44.85489 | 13.42399 | 35121 ft | 454 kts | 121° |
| 2026-05-04 08:11 | 44.71529 | 13.77441 | 35135 ft | 456 kts | 121° |
| 2026-05-04 08:11 | 44.66849 | 13.89088 | 35135 ft | 458 kts | 121° |
| 2026-05-04 08:12 | 44.63708 | 13.96883 | 35132 ft | 457 kts | 121° |
| 2026-05-04 08:12 | 44.60560 | 14.04671 | 35196 ft | 458 kts | 121° |
| 2026-05-04 08:13 | 44.59004 | 14.08512 | 35433 ft | 458 kts | 121° |
| 2026-05-04 08:13 | 44.57425 | 14.12404 | 35628 ft | 459 kts | 121° |
| 2026-05-04 08:13 | 44.55849 | 14.16287 | 35848 ft | 459 kts | 120° |
| 2026-05-04 08:13 | 44.54269 | 14.20172 | 36092 ft | 458 kts | 120° |
| 2026-05-04 08:14 | 44.52690 | 14.24051 | 36319 ft | 458 kts | 121° |
| 2026-05-04 08:14 | 44.51108 | 14.27927 | 36540 ft | 458 kts | 121° |
| 2026-05-04 08:14 | 44.49525 | 14.31798 | 36757 ft | 458 kts | 121° |
| 2026-05-04 08:16 | 44.38408 | 14.58877 | 37141 ft | 459 kts | 121° |
| 2026-05-04 08:16 | 44.35210 | 14.66617 | 37139 ft | 460 kts | 121° |
| 2026-05-04 08:17 | 44.31704 | 14.74083 | 37143 ft | 459 kts | 126° |
| 2026-05-04 08:17 | 44.27983 | 14.81334 | 37140 ft | 459 kts | 127° |
| 2026-05-04 08:19 | 44.13689 | 15.09109 | 37163 ft | 462 kts | 127° |
| 2026-05-04 08:20 | 44.09956 | 15.16325 | 37167 ft | 462 kts | 127° |
| 2026-05-04 08:20 | 44.06194 | 15.23577 | 37171 ft | 462 kts | 127° |
| 2026-05-04 08:21 | 44.02428 | 15.30822 | 37171 ft | 461 kts | 127° |
| 2026-05-04 08:21 | 43.98641 | 15.38085 | 37171 ft | 464 kts | 127° |
| 2026-05-04 08:22 | 43.94848 | 15.45343 | 37168 ft | 464 kts | 127° |
| 2026-05-04 08:24 | 43.79648 | 15.74252 | 37163 ft | 466 kts | 127° |
| 2026-05-04 08:24 | 43.75812 | 15.81499 | 37158 ft | 466 kts | 127° |
| 2026-05-04 08:25 | 43.71974 | 15.88734 | 37164 ft | 466 kts | 127° |
| 2026-05-04 08:25 | 43.68156 | 15.95916 | 37159 ft | 466 kts | 127° |
| 2026-05-04 08:27 | 43.52711 | 16.24780 | 37199 ft | 468 kts | 127° |
| 2026-05-04 08:28 | 43.48897 | 16.32083 | 37201 ft | 468 kts | 123° |
| 2026-05-04 08:28 | 43.45366 | 16.39622 | 37202 ft | 469 kts | 122° |
| 2026-05-04 08:29 | 43.41832 | 16.47177 | 37190 ft | 469 kts | 122° |
| 2026-05-04 08:31 | 43.27667 | 16.77224 | 37173 ft | 470 kts | 122° |
| 2026-05-04 08:33 | 43.13383 | 17.07210 | 37190 ft | 470 kts | 122° |
| 2026-05-04 08:35 | 42.98963 | 17.37148 | 37180 ft | 471 kts | 122° |
| 2026-05-04 08:35 | 42.95311 | 17.44580 | 37179 ft | 471 kts | 122° |
| 2026-05-04 08:37 | 42.82753 | 17.70702 | 37168 ft | 471 kts | 121° |
| 2026-05-04 08:38 | 42.79184 | 17.78205 | 37181 ft | 472 kts | 121° |
| 2026-05-04 08:38 | 42.75609 | 17.85700 | 37176 ft | 472 kts | 121° |
| 2026-05-04 08:40 | 42.63008 | 18.11972 | 34250 ft | 487 kts | 121° |
| 2026-05-04 08:40 | 42.61156 | 18.15812 | 33540 ft | 484 kts | 121° |
| 2026-05-04 08:40 | 42.59322 | 18.19602 | 32986 ft | 477 kts | 121° |
| 2026-05-04 08:41 | 42.57512 | 18.23345 | 32491 ft | 470 kts | 121° |
| 2026-05-04 08:41 | 42.55753 | 18.26970 | 31960 ft | 464 kts | 121° |
| 2026-05-04 08:41 | 42.53934 | 18.30551 | 31437 ft | 458 kts | 122° |
| 2026-05-04 08:41 | 42.52116 | 18.34073 | 30913 ft | 453 kts | 122° |
| 2026-05-04 08:42 | 42.50317 | 18.37550 | 30416 ft | 448 kts | 122° |
| 2026-05-04 08:42 | 42.48539 | 18.40983 | 29824 ft | 443 kts | 122° |
| 2026-05-04 08:42 | 42.46781 | 18.44377 | 29268 ft | 438 kts | 122° |
| 2026-05-04 08:42 | 42.45039 | 18.47736 | 28703 ft | 433 kts | 121° |
| 2026-05-04 08:43 | 42.43318 | 18.51050 | 28168 ft | 427 kts | 122° |
| 2026-05-04 08:43 | 42.41606 | 18.54318 | 27664 ft | 422 kts | 123° |
| 2026-05-04 08:43 | 42.39626 | 18.57240 | 27141 ft | 421 kts | 135° |
| 2026-05-04 08:43 | 42.37449 | 18.59868 | 26625 ft | 417 kts | 136° |
| 2026-05-04 08:44 | 42.35311 | 18.62411 | 26130 ft | 412 kts | 136° |
| 2026-05-04 08:44 | 42.33175 | 18.64962 | 25652 ft | 407 kts | 136° |
| 2026-05-04 08:46 | 42.18837 | 18.82214 | 22076 ft | 381 kts | 135° |
| 2026-05-04 08:46 | 42.16864 | 18.84581 | 21557 ft | 378 kts | 135° |
| 2026-05-04 08:46 | 42.14911 | 18.86923 | 21057 ft | 374 kts | 135° |
| 2026-05-04 08:46 | 42.12972 | 18.89246 | 20586 ft | 370 kts | 135° |
| 2026-05-04 08:47 | 42.11063 | 18.91531 | 20128 ft | 365 kts | 135° |
| 2026-05-04 08:47 | 42.09173 | 18.93791 | 19669 ft | 361 kts | 135° |
| 2026-05-04 08:47 | 42.07303 | 18.96026 | 19226 ft | 357 kts | 135° |
| 2026-05-04 08:47 | 42.05453 | 18.98235 | 18796 ft | 353 kts | 135° |
| 2026-05-04 08:48 | 42.03630 | 19.00411 | 18357 ft | 348 kts | 134° |
| 2026-05-04 08:48 | 42.01827 | 19.02562 | 17878 ft | 344 kts | 135° |
| 2026-05-04 08:48 | 42.00044 | 19.04687 | 17430 ft | 340 kts | 135° |